LIPR/RMI METAR and TAF weather

Enter ICAO airport designator
Station Type Date Time Source
LIPR METAR 2022/06/27 18:50 UTC NOAA

LIPR 271850Z AUTO VRB02KT 9999 NCD 28/21 Q1012


Station Type Date Time Source
LIPR Decoded METAR 2022/06/27 18:50 UTC NOAA

Rimini, Italy (LIPR) 44-02N 012-37E 13M
Jun 27, 2022 - 02:50 PM EDT / 2022.06.27 1850 UTC
Wind: Variable at 2 MPH (2 KT):0
Visibility: greater than 7 mile(s):0
Temperature: 82 F (28 C)
Dew Point: 69 F (21 C)
Relative Humidity: 65%
Pressure (altimeter): 29.88 in. Hg (1012 hPa)
ob: LIPR 271850Z AUTO VRB02KT 9999 NCD 28/21 Q1012
cycle: 19

Station Type Date Time Source
LIPR TAF 2022/06/27 18:21 UTC NOAA

TAF LIPR 271700Z 2718/2818 10010KT 9999 FEW050
BECMG 2718/2720 VRB05KT PROB40
TEMPO 2809/2818 RA
BECMG 2812/2814 12014KT

Example: see airport list